Azure — ZCEE2 — position and weather

sailwx.info

Track history (hours):
 
Tides and Currents Weather Stations Pressure Air Temp Water Temp Dewpoint Dewpoint Depression Visibility Wind Speed Wind Dir Waves Ship Positions

Azure

Last reported at 2018-Apr-20 06:26 UTC. Time now 2018-Apr-20 06:32 UTC.
Position N 44°06' E 009°50'.

Length 289 m; draft 8.6 m.

Type: Passenger vessel. MMSI: 310610000.

Date/timePositionNaut miles runAvg speedWind from/ knotsBaromVisibWave heightAir tempDewpointWater temp
2018-Apr-20 06:26N 44°06' E 009°50'0 0.0
2018-Apr-20 05:59N 44°06' E 009°50'0 0.0
2018-Apr-20 05:23N 44°06' E 009°50'0 0.0
2018-Apr-20 04:59N 44°06' E 009°50'0 0.0
2018-Apr-20 04:30N 44°06' E 009°50'1 3.0
2018-Apr-20 04:00N 44°05' E 009°51'5 9.1
2018-Apr-20 03:30N 44°01' E 009°55'714.0
2018-Apr-20 03:00N 43°55' E 009°53'919.0
2018-Apr-20 02:30N 43°49' E 009°43'1019.1
2018-Apr-20 02:00N 43°43' E 009°32'1018.6
2018-Apr-20 01:29N 43°39' E 009°19'919.5
2018-Apr-20 01:00N 43°35' E 009°09'1019.6
2018-Apr-20 00:30N 43°29' E 008°57'1019.7
2018-Apr-20 00:00N 43°24' E 008°46'1019.3
2018-Apr-19 23:30N 43°20' E 008°34'1020.3
2018-Apr-19 23:00N 43°15' E 008°22'1020.5
2018-Apr-19 22:30N 43°09' E 008°10'1020.2
2018-Apr-19 22:00N 43°04' E 007°58'8718.5
2018-Apr-19 17:17N 43°04' E 005°58'3 9.6
2018-Apr-19 17:00N 43°06' E 005°55'1 2.5
2018-Apr-19 16:30N 43°06' E 005°54'0 0.0
2018-Apr-19 16:00N 43°06' E 005°54'0 0.0
2018-Apr-19 15:30N 43°06' E 005°54'0 0.0
2018-Apr-19 15:00N 43°06' E 005°54'0 0.0
2018-Apr-19 14:30N 43°06' E 005°54'0 0.0
2018-Apr-19 14:00N 43°06' E 005°54'0 0.0
2018-Apr-19 13:30N 43°06' E 005°54'0 0.0
2018-Apr-19 13:00N 43°06' E 005°54'0 0.0
2018-Apr-19 12:30N 43°06' E 005°54'0 0.0
2018-Apr-19 12:00N 43°06' E 005°54'0 0.0
2018-Apr-19 11:29N 43°06' E 005°54'0 0.0
2018-Apr-19 10:59N 43°06' E 005°54'0 0.0
2018-Apr-19 10:29N 43°06' E 005°54'0 0.0
2018-Apr-19 09:59N 43°06' E 005°54'0 0.0
2018-Apr-19 09:29N 43°06' E 005°54'0 0.0
2018-Apr-19 08:59N 43°06' E 005°54'0 0.0
2018-Apr-19 08:31N 43°06' E 005°54'0 0.0
2018-Apr-19 08:01N 43°06' E 005°54'0 0.0
2018-Apr-19 07:31N 43°06' E 005°54'0 0.0
2018-Apr-19 07:00N 43°06' E 005°54'0 0.0
2018-Apr-19 06:30N 43°06' E 005°54'1 2.0
2018-Apr-19 06:00N 43°06' E 005°55'17217.7
2018-Apr-18 20:15N 41°27' E 002°45'618.2
2018-Apr-18 19:55N 41°24' E 002°37'818.6
2018-Apr-18 19:30N 41°21' E 002°28'918.6
2018-Apr-18 19:00N 41°17' E 002°17'611.9
2018-Apr-18 18:30N 41°20' E 002°10'2 3.2
2018-Apr-18 17:58N 41°21' E 002°10'0 0.0
2018-Apr-18 17:28N 41°21' E 002°10'0 0.0
2018-Apr-18 16:58N 41°21' E 002°10'0 0.0
2018-Apr-18 16:28N 41°21' E 002°10'0 0.0
2018-Apr-18 15:58N 41°21' E 002°10'0 0.0
2018-Apr-18 15:28N 41°21' E 002°10'0 0.0
2018-Apr-18 14:58N 41°21' E 002°10'0 0.0
2018-Apr-18 14:28N 41°21' E 002°10'0 0.0
2018-Apr-18 13:58N 41°21' E 002°10'0 0.0
2018-Apr-18 13:28N 41°21' E 002°10'0 0.0
2018-Apr-18 12:58N 41°21' E 002°10'0 0.0
2018-Apr-18 12:28N 41°21' E 002°10'0 0.0
2018-Apr-18 11:58N 41°21' E 002°10'0 0.0
2018-Apr-18 11:28N 41°21' E 002°10'0 0.0
2018-Apr-18 10:58N 41°21' E 002°10'0 0.0
2018-Apr-18 10:28N 41°21' E 002°10'0 0.0
2018-Apr-18 09:55N 41°21' E 002°10'0 0.0
2018-Apr-18 09:28N 41°21' E 002°10'0 0.0
2018-Apr-18 08:55N 41°21' E 002°10'0 0.0
2018-Apr-18 08:28N 41°21' E 002°10'0 0.0
2018-Apr-18 07:58N 41°21' E 002°10'0 0.0
2018-Apr-18 07:28N 41°21' E 002°10'0 0.0
2018-Apr-18 07:00N 41°21' E 002°10'0 0.0
2018-Apr-18 06:30N 41°21' E 002°10'0 0.0
2018-Apr-18 06:00N 41°21' E 002°10'0 0.1
2018-Apr-18 05:30N 41°21' E 002°10'1 1.9
2018-Apr-18 05:01N 41°20' E 002°10'5 9.1
2018-Apr-18 04:30N 41°16' E 002°10'917.4
2018-Apr-18 04:00N 41°08' E 002°05'917.2
2018-Apr-18 03:30N 41°00' E 002°00'917.5
2018-Apr-18 03:00N 40°53' E 001°55'1018.7
2018-Apr-18 02:29N 40°44' E 001°50'918.8
2018-Apr-18 02:00N 40°35' E 001°45'918.1
2018-Apr-18 01:30N 40°27' E 001°40'164 8.3
2018-Apr-17 05:37N 38°15' W 000°26'215.7
2018-Apr-17 05:30N 38°13' W 000°25'816.1
2018-Apr-17 05:00N 38°05' W 000°25'816.4
2018-Apr-17 04:30N 37°57' W 000°26'917.7
2018-Apr-17 04:00N 37°48' W 000°27'918.2
2018-Apr-17 03:30N 37°39' W 000°28'917.8
2018-Apr-17 03:00N 37°31' W 000°34'918.0
2018-Apr-17 02:30N 37°26' W 000°43'917.9
2018-Apr-17 02:00N 37°20' W 000°51'917.5
2018-Apr-17 01:30N 37°14' W 000°59'917.3
2018-Apr-17 01:00N 37°08' W 001°08'20716.8
2018-Apr-16 12:37N 36°01' W 005°12'218.0
2018-Apr-16 12:30N 36°00' W 005°14'919.1
2018-Apr-16 12:00N 35°58' W 005°26'22715.7
2018-Apr-15 21:35N 37°33' W 009°43'418.5
2018-Apr-15 21:23N 37°37' W 009°44'918.5
2018-Apr-15 20:54N 37°46' W 009°46'1118.2
2018-Apr-15 20:18N 37°56' W 009°50'518.5
2018-Apr-15 20:00N 38°01' W 009°51'918.0
2018-Apr-15 19:30N 38°10' W 009°55'918.2
2018-Apr-15 19:00N 38°19' W 009°58'171110.5
2018-Apr-15 19:00N 38°36' W 010°00'817.5 280 / 251020.210.8 15.011.314.5
2018-Apr-15 18:30N 38°28' W 010°01'918.4
2018-Apr-15 18:01N 38°36' W 010°04'918.4
2018-Apr-15 17:30N 38°45' W 010°07'918.5
2018-Apr-15 17:01N 38°55' W 010°06'918.4
2018-Apr-15 16:30N 39°04' W 010°05'918.1
2018-Apr-15 16:00N 39°13' W 010°05'918.2
2018-Apr-15 15:30N 39°22' W 010°05'16419.3
2018-Apr-15 07:00N 42°06' W 010°00'23317.9 080 / 251015.110.8 13.0 9.113.0
2018-Apr-14 18:00N 45°42' W 008°00'15917.6 320 / 301008.2 5.4 13.0 7.913.0
2018-Apr-14 08:58N 47°57' W 005°57'1819.3
2018-Apr-14 08:04N 48°12' W 005°44'419.7
2018-Apr-14 07:53N 48°15' W 005°41'1119.8
2018-Apr-14 07:21N 48°24' W 005°32'720.0
2018-Apr-14 07:00N 48°29' W 005°26'1019.5
2018-Apr-14 06:30N 48°37' W 005°17'918.9
2018-Apr-14 06:00N 48°43' W 005°07'13964.5
2018-Apr-14 06:00N 48°48' W 004°48'612.2 260 / 111013.7 2.2 10.5 8.513.0
2018-Apr-14 05:30N 48°50' W 004°57'917.8
2018-Apr-14 05:00N 48°56' W 004°47'917.4
2018-Apr-14 04:30N 49°02' W 004°37'5117.1
2018-Apr-14 01:33N 49°35' W 003°39'118.9
2018-Apr-14 01:29N 49°36' W 003°38'1119.5
2018-Apr-14 00:56N 49°43' W 003°26'920.1
2018-Apr-14 00:30N 49°49' W 003°16'1020.4
2018-Apr-14 00:00N 49°56' W 003°04'1020.4
2018-Apr-13 23:30N 50°01' W 002°50'1020.6
2018-Apr-13 23:00N 50°05' W 002°35'1120.1
2018-Apr-13 22:27N 50°09' W 002°18'919.7
2018-Apr-13 22:00N 50°12' W 002°06'918.8
2018-Apr-13 21:30N 50°16' W 001°53'816.3
2018-Apr-13 21:01N 50°19' W 001°41'815.6
2018-Apr-13 20:30N 50°23' W 001°30'816.9
2018-Apr-13 20:00N 50°27' W 001°19'816.1
2018-Apr-13 19:31N 50°31' W 001°08'815.6
2018-Apr-13 19:00N 50°37' W 000°60'612.8
2018-Apr-13 18:30N 50°43' W 001°01'1019.1
2018-Apr-13 18:00N 50°46' W 001°15'611.1
2018-Apr-13 17:30N 50°51' W 001°20'4 7.6
2018-Apr-13 17:00N 50°53' W 001°24'0 0.0
2018-Apr-13 16:29N 50°53' W 001°24'0 0.0
2018-Apr-13 15:59N 50°53' W 001°24'0 0.0
2018-Apr-13 15:29N 50°53' W 001°24'0 0.0
2018-Apr-13 14:59N 50°53' W 001°24'0 0.0
2018-Apr-13 14:26N 50°53' W 001°24'0 0.0
2018-Apr-13 13:59N 50°53' W 001°24'0 0.0
2018-Apr-13 13:29N 50°53' W 001°24'0 0.0
2018-Apr-13 12:56N 50°53' W 001°24'0 0.0
2018-Apr-13 12:29N 50°53' W 001°24'0 0.0
2018-Apr-13 11:59N 50°53' W 001°24'0 0.0
2018-Apr-13 11:26N 50°53' W 001°24'0 0.0
2018-Apr-13 10:59N 50°53' W 001°24'0 0.0
2018-Apr-13 10:29N 50°53' W 001°24'0 0.0
2018-Apr-13 09:59N 50°53' W 001°24'0 0.0
2018-Apr-13 09:26N 50°53' W 001°24'0 0.0
2018-Apr-13 08:59N 50°53' W 001°24'0 0.0
2018-Apr-13 08:29N 50°53' W 001°24'0 0.0
2018-Apr-13 07:59N 50°53' W 001°24'0 0.0
2018-Apr-13 07:29N 50°53' W 001°24'0 0.0
2018-Apr-13 06:59N 50°53' W 001°24'0 0.0
2018-Apr-13 06:29N 50°53' W 001°24'0 0.0
2018-Apr-13 05:59N 50°53' W 001°24'0 0.0
2018-Apr-13 05:30N 50°53' W 001°24'1 1.4
2018-Apr-13 05:00N 50°53' W 001°24'4 9.0
2018-Apr-13 04:30N 50°50' W 001°19'4 7.4
2018-Apr-13 04:00N 50°47' W 001°15'817.0
2018-Apr-13 03:30N 50°44' W 001°02'510.4
2018-Apr-13 03:00N 50°39' W 000°59'4 8.3
2018-Apr-13 02:30N 50°35' W 001°00'4 8.1
2018-Apr-13 02:00N 50°33' W 001°06'4 8.6
2018-Apr-13 01:30N 50°32' W 001°12'5 7.9
2018-Apr-13 00:50N 50°30' W 001°20'2 6.7
2018-Apr-13 00:30N 50°29' W 001°24'3 6.6
2018-Apr-13 00:00N 50°29' W 001°29'3 6.7
2018-Apr-12 23:30N 50°28' W 001°34'3 5.7
2018-Apr-12 23:00N 50°26' W 001°37'3 6.7
2018-Apr-12 22:30N 50°24' W 001°40'4 8.7
2018-Apr-12 22:00N 50°20' W 001°35'5 8.9
2018-Apr-12 21:30N 50°17' W 001°31'5 9.7
2018-Apr-12 21:00N 50°13' W 001°27'5 9.4
2018-Apr-12 20:30N 50°08' W 001°26'5 9.5
2018-Apr-12 20:00N 50°03' W 001°25'5 9.2
2018-Apr-12 19:30N 49°59' W 001°24'4 8.6
2018-Apr-12 19:00N 49°55' W 001°22'3 6.9
2018-Apr-12 18:31N 49°51' W 001°22'510.2
2018-Apr-12 18:01N 49°50' W 001°29'5 9.7
2018-Apr-12 17:30N 49°47' W 001°36'4 8.7
2018-Apr-12 17:01N 49°44' W 001°40'4 8.2
2018-Apr-12 16:30N 49°40' W 001°39'2 3.8
2018-Apr-12 15:59N 49°39' W 001°37'0 0.0
2018-Apr-12 15:29N 49°39' W 001°37'0 0.0
2018-Apr-12 14:59N 49°39' W 001°37'0 0.0
2018-Apr-12 14:29N 49°39' W 001°37'0 0.0
2018-Apr-12 13:56N 49°39' W 001°37'0 0.0
2018-Apr-12 13:29N 49°39' W 001°37'0 0.0
2018-Apr-12 12:59N 49°39' W 001°37'0 0.0
2018-Apr-12 12:29N 49°39' W 001°37'0 0.0
2018-Apr-12 11:59N 49°39' W 001°37'0 0.0
2018-Apr-12 11:29N 49°39' W 001°37'0 0.0
2018-Apr-12 10:59N 49°39' W 001°37'0 0.0
2018-Apr-12 10:29N 49°39' W 001°37'0 0.0
2018-Apr-12 09:59N 49°39' W 001°37'0 0.0
2018-Apr-12 09:29N 49°39' W 001°37'0 0.0
2018-Apr-12 08:59N 49°39' W 001°37'0 0.0
2018-Apr-12 08:29N 49°39' W 001°37'0 0.0
2018-Apr-12 07:59N 49°39' W 001°37'0 0.0
2018-Apr-12 07:29N 49°39' W 001°37'0 0.0
2018-Apr-12 06:59N 49°39' W 001°37'0 0.0
2018-Apr-12 06:29N 49°39' W 001°37'0 0.0
2018-Apr-12 06:00N 49°39' W 001°37'0 0.2
2018-Apr-12 05:31N 49°39' W 001°37'2 4.5
2018-Apr-12 05:01N 49°41' W 001°39'611.8
2018-Apr-12 04:30N 49°45' W 001°45'1019.4
2018-Apr-12 04:00N 49°49' W 001°59'1619.8
2018-Apr-12 03:10N 49°53' W 002°24'421.4
2018-Apr-12 03:00N 49°51' W 002°29'1121.1
2018-Apr-12 02:30N 49°48' W 002°45'1420.5
2018-Apr-12 01:51N 49°42' W 003°04'720.5
2018-Apr-12 01:30N 49°38' W 003°13'6420.6
2018-Apr-11 22:22N 48°59' W 004°31'820.6
2018-Apr-11 22:00N 48°55' W 004°41'1020.6
2018-Apr-11 21:30N 48°49' W 004°53'1020.5
2018-Apr-11 21:00N 48°42' W 005°05'1019.9
2018-Apr-11 20:29N 48°35' W 005°17'1020.2
2018-Apr-11 20:00N 48°28' W 005°27'2320.2
2018-Apr-11 18:53N 48°09' W 005°44'2220.2
2018-Apr-11 17:48N 47°50' W 006°01'24921.1
2018-Apr-11 06:00N 44°12' W 008°54'11616.6 310 / 261003.7 5.4 11.5 7.413.0
2018-Apr-10 23:00N 42°18' W 009°24'6911.8 040 / 281004.310.8 11.0 4.813.0
2018-Apr-10 17:09N 41°14' W 008°51'318.2
2018-Apr-10 17:00N 41°11' W 008°50'611.1
2018-Apr-10 16:30N 41°10' W 008°42'1 1.5
2018-Apr-10 16:00N 41°11' W 008°42'0 0.0
2018-Apr-10 15:29N 41°11' W 008°42'0 0.0
2018-Apr-10 14:59N 41°11' W 008°42'0 0.0
2018-Apr-10 14:29N 41°11' W 008°42'0 0.0
2018-Apr-10 13:59N 41°11' W 008°42'0 0.0
2018-Apr-10 13:29N 41°11' W 008°42'0 0.0
2018-Apr-10 13:00N 41°11' W 008°42'0 0.0
2018-Apr-10 12:30N 41°11' W 008°42'0 0.0
2018-Apr-10 12:00N 41°11' W 008°42'0 0.0
2018-Apr-10 11:29N 41°11' W 008°42'0 0.0
2018-Apr-10 11:00N 41°11' W 008°42'0 0.0
2018-Apr-10 10:29N 41°11' W 008°42'0 0.0
2018-Apr-10 09:58N 41°11' W 008°42'0 0.0
2018-Apr-10 09:29N 41°11' W 008°42'0 0.0
2018-Apr-10 08:59N 41°11' W 008°42'0 0.0
2018-Apr-10 08:28N 41°11' W 008°42'0 0.0
2018-Apr-10 07:59N 41°11' W 008°42'0 0.3
2018-Apr-10 07:30N 41°11' W 008°42'3 6.7
2018-Apr-10 07:00N 41°08' W 008°43'510.2
2018-Apr-10 06:30N 41°03' W 008°47'  
Track history (hours):
 
Tides and Currents Weather Stations Pressure Air Temp Water Temp Dewpoint Dewpoint Depression Visibility Wind Speed Wind Dir Waves Ship Positions

Azure

Last reported at 2018-Apr-20 06:26 UTC. Time now 2018-Apr-20 06:32 UTC.
Position N 44°06' E 009°50'.

Length 289 m; draft 8.6 m.

Type: Passenger vessel. MMSI: 310610000.

Date/timePositionNaut miles runAvg speedWind from/ knotsBaromVisibWave heightAir tempDewpointWater temp
2018-Apr-20 06:26N 44°06' E 009°50'0 0.0
2018-Apr-20 05:59N 44°06' E 009°50'0 0.0
2018-Apr-20 05:23N 44°06' E 009°50'0 0.0
2018-Apr-20 04:59N 44°06' E 009°50'0 0.0
2018-Apr-20 04:30N 44°06' E 009°50'1 3.0
2018-Apr-20 04:00N 44°05' E 009°51'5 9.1
2018-Apr-20 03:30N 44°01' E 009°55'714.0
2018-Apr-20 03:00N 43°55' E 009°53'919.0
2018-Apr-20 02:30N 43°49' E 009°43'1019.1
2018-Apr-20 02:00N 43°43' E 009°32'1018.6
2018-Apr-20 01:29N 43°39' E 009°19'919.5
2018-Apr-20 01:00N 43°35' E 009°09'1019.6
2018-Apr-20 00:30N 43°29' E 008°57'1019.7
2018-Apr-20 00:00N 43°24' E 008°46'1019.3
2018-Apr-19 23:30N 43°20' E 008°34'1020.3
2018-Apr-19 23:00N 43°15' E 008°22'1020.5
2018-Apr-19 22:30N 43°09' E 008°10'1020.2
2018-Apr-19 22:00N 43°04' E 007°58'8718.5
2018-Apr-19 17:17N 43°04' E 005°58'3 9.6
2018-Apr-19 17:00N 43°06' E 005°55'1 2.5
2018-Apr-19 16:30N 43°06' E 005°54'0 0.0
2018-Apr-19 16:00N 43°06' E 005°54'0 0.0
2018-Apr-19 15:30N 43°06' E 005°54'0 0.0
2018-Apr-19 15:00N 43°06' E 005°54'0 0.0
2018-Apr-19 14:30N 43°06' E 005°54'0 0.0
2018-Apr-19 14:00N 43°06' E 005°54'0 0.0
2018-Apr-19 13:30N 43°06' E 005°54'0 0.0
2018-Apr-19 13:00N 43°06' E 005°54'0 0.0
2018-Apr-19 12:30N 43°06' E 005°54'0 0.0
2018-Apr-19 12:00N 43°06' E 005°54'0 0.0
2018-Apr-19 11:29N 43°06' E 005°54'0 0.0
2018-Apr-19 10:59N 43°06' E 005°54'0 0.0
2018-Apr-19 10:29N 43°06' E 005°54'0 0.0
2018-Apr-19 09:59N 43°06' E 005°54'0 0.0
2018-Apr-19 09:29N 43°06' E 005°54'0 0.0
2018-Apr-19 08:59N 43°06' E 005°54'0 0.0
2018-Apr-19 08:31N 43°06' E 005°54'0 0.0
2018-Apr-19 08:01N 43°06' E 005°54'0 0.0
2018-Apr-19 07:31N 43°06' E 005°54'0 0.0
2018-Apr-19 07:00N 43°06' E 005°54'0 0.0
2018-Apr-19 06:30N 43°06' E 005°54'1 2.0
2018-Apr-19 06:00N 43°06' E 005°55'17217.7
2018-Apr-18 20:15N 41°27' E 002°45'618.2
2018-Apr-18 19:55N 41°24' E 002°37'818.6
2018-Apr-18 19:30N 41°21' E 002°28'918.6
2018-Apr-18 19:00N 41°17' E 002°17'611.9
2018-Apr-18 18:30N 41°20' E 002°10'2 3.2
2018-Apr-18 17:58N 41°21' E 002°10'0 0.0
2018-Apr-18 17:28N 41°21' E 002°10'0 0.0
2018-Apr-18 16:58N 41°21' E 002°10'0 0.0
2018-Apr-18 16:28N 41°21' E 002°10'0 0.0
2018-Apr-18 15:58N 41°21' E 002°10'0 0.0
2018-Apr-18 15:28N 41°21' E 002°10'0 0.0
2018-Apr-18 14:58N 41°21' E 002°10'0 0.0
2018-Apr-18 14:28N 41°21' E 002°10'0 0.0
2018-Apr-18 13:58N 41°21' E 002°10'0 0.0
2018-Apr-18 13:28N 41°21' E 002°10'0 0.0
2018-Apr-18 12:58N 41°21' E 002°10'0 0.0
2018-Apr-18 12:28N 41°21' E 002°10'0 0.0
2018-Apr-18 11:58N 41°21' E 002°10'0 0.0
2018-Apr-18 11:28N 41°21' E 002°10'0 0.0
2018-Apr-18 10:58N 41°21' E 002°10'0 0.0
2018-Apr-18 10:28N 41°21' E 002°10'0 0.0
2018-Apr-18 09:55N 41°21' E 002°10'0 0.0
2018-Apr-18 09:28N 41°21' E 002°10'0 0.0
2018-Apr-18 08:55N 41°21' E 002°10'0 0.0
2018-Apr-18 08:28N 41°21' E 002°10'0 0.0
2018-Apr-18 07:58N 41°21' E 002°10'0 0.0
2018-Apr-18 07:28N 41°21' E 002°10'0 0.0
2018-Apr-18 07:00N 41°21' E 002°10'0 0.0
2018-Apr-18 06:30N 41°21' E 002°10'0 0.0
2018-Apr-18 06:00N 41°21' E 002°10'0 0.1
2018-Apr-18 05:30N 41°21' E 002°10'1 1.9
2018-Apr-18 05:01N 41°20' E 002°10'5 9.1
2018-Apr-18 04:30N 41°16' E 002°10'917.4
2018-Apr-18 04:00N 41°08' E 002°05'917.2
2018-Apr-18 03:30N 41°00' E 002°00'917.5
2018-Apr-18 03:00N 40°53' E 001°55'1018.7
2018-Apr-18 02:29N 40°44' E 001°50'918.8
2018-Apr-18 02:00N 40°35' E 001°45'918.1
2018-Apr-18 01:30N 40°27' E 001°40'164 8.3
2018-Apr-17 05:37N 38°15' W 000°26'215.7
2018-Apr-17 05:30N 38°13' W 000°25'816.1
2018-Apr-17 05:00N 38°05' W 000°25'816.4
2018-Apr-17 04:30N 37°57' W 000°26'917.7
2018-Apr-17 04:00N 37°48' W 000°27'918.2
2018-Apr-17 03:30N 37°39' W 000°28'917.8
2018-Apr-17 03:00N 37°31' W 000°34'918.0
2018-Apr-17 02:30N 37°26' W 000°43'917.9
2018-Apr-17 02:00N 37°20' W 000°51'917.5
2018-Apr-17 01:30N 37°14' W 000°59'917.3
2018-Apr-17 01:00N 37°08' W 001°08'20716.8
2018-Apr-16 12:37N 36°01' W 005°12'218.0
2018-Apr-16 12:30N 36°00' W 005°14'919.1
2018-Apr-16 12:00N 35°58' W 005°26'22715.7
2018-Apr-15 21:35N 37°33' W 009°43'418.5
2018-Apr-15 21:23N 37°37' W 009°44'918.5
2018-Apr-15 20:54N 37°46' W 009°46'1118.2
2018-Apr-15 20:18N 37°56' W 009°50'518.5
2018-Apr-15 20:00N 38°01' W 009°51'918.0
2018-Apr-15 19:30N 38°10' W 009°55'918.2
2018-Apr-15 19:00N 38°19' W 009°58'171110.5
2018-Apr-15 19:00N 38°36' W 010°00'817.5 280 / 251020.210.8 15.011.314.5
2018-Apr-15 18:30N 38°28' W 010°01'918.4
2018-Apr-15 18:01N 38°36' W 010°04'918.4
2018-Apr-15 17:30N 38°45' W 010°07'918.5
2018-Apr-15 17:01N 38°55' W 010°06'918.4
2018-Apr-15 16:30N 39°04' W 010°05'918.1
2018-Apr-15 16:00N 39°13' W 010°05'918.2
2018-Apr-15 15:30N 39°22' W 010°05'16419.3
2018-Apr-15 07:00N 42°06' W 010°00'23317.9 080 / 251015.110.8 13.0 9.113.0
2018-Apr-14 18:00N 45°42' W 008°00'15917.6 320 / 301008.2 5.4 13.0 7.913.0
2018-Apr-14 08:58N 47°57' W 005°57'1819.3
2018-Apr-14 08:04N 48°12' W 005°44'419.7
2018-Apr-14 07:53N 48°15' W 005°41'1119.8
2018-Apr-14 07:21N 48°24' W 005°32'720.0
2018-Apr-14 07:00N 48°29' W 005°26'1019.5
2018-Apr-14 06:30N 48°37' W 005°17'918.9
2018-Apr-14 06:00N 48°43' W 005°07'13964.5
2018-Apr-14 06:00N 48°48' W 004°48'612.2 260 / 111013.7 2.2 10.5 8.513.0
2018-Apr-14 05:30N 48°50' W 004°57'917.8
2018-Apr-14 05:00N 48°56' W 004°47'917.4
2018-Apr-14 04:30N 49°02' W 004°37'5117.1
2018-Apr-14 01:33N 49°35' W 003°39'118.9
2018-Apr-14 01:29N 49°36' W 003°38'1119.5
2018-Apr-14 00:56N 49°43' W 003°26'920.1
2018-Apr-14 00:30N 49°49' W 003°16'1020.4
2018-Apr-14 00:00N 49°56' W 003°04'1020.4
2018-Apr-13 23:30N 50°01' W 002°50'1020.6
2018-Apr-13 23:00N 50°05' W 002°35'1120.1
2018-Apr-13 22:27N 50°09' W 002°18'919.7
2018-Apr-13 22:00N 50°12' W 002°06'918.8
2018-Apr-13 21:30N 50°16' W 001°53'816.3
2018-Apr-13 21:01N 50°19' W 001°41'815.6
2018-Apr-13 20:30N 50°23' W 001°30'816.9
2018-Apr-13 20:00N 50°27' W 001°19'816.1
2018-Apr-13 19:31N 50°31' W 001°08'815.6
2018-Apr-13 19:00N 50°37' W 000°60'612.8
2018-Apr-13 18:30N 50°43' W 001°01'1019.1
2018-Apr-13 18:00N 50°46' W 001°15'611.1
2018-Apr-13 17:30N 50°51' W 001°20'4 7.6
2018-Apr-13 17:00N 50°53' W 001°24'0 0.0
2018-Apr-13 16:29N 50°53' W 001°24'0 0.0
2018-Apr-13 15:59N 50°53' W 001°24'0 0.0
2018-Apr-13 15:29N 50°53' W 001°24'0 0.0
2018-Apr-13 14:59N 50°53' W 001°24'0 0.0
2018-Apr-13 14:26N 50°53' W 001°24'0 0.0
2018-Apr-13 13:59N 50°53' W 001°24'0 0.0
2018-Apr-13 13:29N 50°53' W 001°24'0 0.0
2018-Apr-13 12:56N 50°53' W 001°24'0 0.0
2018-Apr-13 12:29N 50°53' W 001°24'0 0.0
2018-Apr-13 11:59N 50°53' W 001°24'0 0.0
2018-Apr-13 11:26N 50°53' W 001°24'0 0.0
2018-Apr-13 10:59N 50°53' W 001°24'0 0.0
2018-Apr-13 10:29N 50°53' W 001°24'0 0.0
2018-Apr-13 09:59N 50°53' W 001°24'0 0.0
2018-Apr-13 09:26N 50°53' W 001°24'0 0.0
2018-Apr-13 08:59N 50°53' W 001°24'0 0.0
2018-Apr-13 08:29N 50°53' W 001°24'0 0.0
2018-Apr-13 07:59N 50°53' W 001°24'0 0.0
2018-Apr-13 07:29N 50°53' W 001°24'0 0.0
2018-Apr-13 06:59N 50°53' W 001°24'0 0.0
2018-Apr-13 06:29N 50°53' W 001°24'0 0.0
2018-Apr-13 05:59N 50°53' W 001°24'0 0.0
2018-Apr-13 05:30N 50°53' W 001°24'1 1.4
2018-Apr-13 05:00N 50°53' W 001°24'4 9.0
2018-Apr-13 04:30N 50°50' W 001°19'4 7.4
2018-Apr-13 04:00N 50°47' W 001°15'817.0
2018-Apr-13 03:30N 50°44' W 001°02'510.4
2018-Apr-13 03:00N 50°39' W 000°59'4 8.3
2018-Apr-13 02:30N 50°35' W 001°00'4 8.1
2018-Apr-13 02:00N 50°33' W 001°06'4 8.6
2018-Apr-13 01:30N 50°32' W 001°12'5 7.9
2018-Apr-13 00:50N 50°30' W 001°20'2 6.7
2018-Apr-13 00:30N 50°29' W 001°24'3 6.6
2018-Apr-13 00:00N 50°29' W 001°29'3 6.7
2018-Apr-12 23:30N 50°28' W 001°34'3 5.7
2018-Apr-12 23:00N 50°26' W 001°37'3 6.7
2018-Apr-12 22:30N 50°24' W 001°40'4 8.7
2018-Apr-12 22:00N 50°20' W 001°35'5 8.9
2018-Apr-12 21:30N 50°17' W 001°31'5 9.7
2018-Apr-12 21:00N 50°13' W 001°27'5 9.4
2018-Apr-12 20:30N 50°08' W 001°26'5 9.5
2018-Apr-12 20:00N 50°03' W 001°25'5 9.2
2018-Apr-12 19:30N 49°59' W 001°24'4 8.6
2018-Apr-12 19:00N 49°55' W 001°22'3 6.9
2018-Apr-12 18:31N 49°51' W 001°22'510.2
2018-Apr-12 18:01N 49°50' W 001°29'5 9.7
2018-Apr-12 17:30N 49°47' W 001°36'4 8.7
2018-Apr-12 17:01N 49°44' W 001°40'4 8.2
2018-Apr-12 16:30N 49°40' W 001°39'2 3.8
2018-Apr-12 15:59N 49°39' W 001°37'0 0.0
2018-Apr-12 15:29N 49°39' W 001°37'0 0.0
2018-Apr-12 14:59N 49°39' W 001°37'0 0.0
2018-Apr-12 14:29N 49°39' W 001°37'0 0.0
2018-Apr-12 13:56N 49°39' W 001°37'0 0.0
2018-Apr-12 13:29N 49°39' W 001°37'0 0.0
2018-Apr-12 12:59N 49°39' W 001°37'0 0.0
2018-Apr-12 12:29N 49°39' W 001°37'0 0.0
2018-Apr-12 11:59N 49°39' W 001°37'0 0.0
2018-Apr-12 11:29N 49°39' W 001°37'0 0.0
2018-Apr-12 10:59N 49°39' W 001°37'0 0.0
2018-Apr-12 10:29N 49°39' W 001°37'0 0.0
2018-Apr-12 09:59N 49°39' W 001°37'0 0.0
2018-Apr-12 09:29N 49°39' W 001°37'0 0.0
2018-Apr-12 08:59N 49°39' W 001°37'0 0.0
2018-Apr-12 08:29N 49°39' W 001°37'0 0.0
2018-Apr-12 07:59N 49°39' W 001°37'0 0.0
2018-Apr-12 07:29N 49°39' W 001°37'0 0.0
2018-Apr-12 06:59N 49°39' W 001°37'0 0.0
2018-Apr-12 06:29N 49°39' W 001°37'0 0.0
2018-Apr-12 06:00N 49°39' W 001°37'0 0.2
2018-Apr-12 05:31N 49°39' W 001°37'2 4.5
2018-Apr-12 05:01N 49°41' W 001°39'611.8
2018-Apr-12 04:30N 49°45' W 001°45'1019.4
2018-Apr-12 04:00N 49°49' W 001°59'1619.8
2018-Apr-12 03:10N 49°53' W 002°24'421.4
2018-Apr-12 03:00N 49°51' W 002°29'1121.1
2018-Apr-12 02:30N 49°48' W 002°45'1420.5
2018-Apr-12 01:51N 49°42' W 003°04'720.5
2018-Apr-12 01:30N 49°38' W 003°13'6420.6
2018-Apr-11 22:22N 48°59' W 004°31'820.6
2018-Apr-11 22:00N 48°55' W 004°41'1020.6
2018-Apr-11 21:30N 48°49' W 004°53'1020.5
2018-Apr-11 21:00N 48°42' W 005°05'1019.9
2018-Apr-11 20:29N 48°35' W 005°17'1020.2
2018-Apr-11 20:00N 48°28' W 005°27'2320.2
2018-Apr-11 18:53N 48°09' W 005°44'2220.2
2018-Apr-11 17:48N 47°50' W 006°01'24921.1
2018-Apr-11 06:00N 44°12' W 008°54'11616.6 310 / 261003.7 5.4 11.5 7.413.0
2018-Apr-10 23:00N 42°18' W 009°24'6911.8 040 / 281004.310.8 11.0 4.813.0
2018-Apr-10 17:09N 41°14' W 008°51'318.2
2018-Apr-10 17:00N 41°11' W 008°50'611.1
2018-Apr-10 16:30N 41°10' W 008°42'1 1.5
2018-Apr-10 16:00N 41°11' W 008°42'0 0.0
2018-Apr-10 15:29N 41°11' W 008°42'0 0.0
2018-Apr-10 14:59N 41°11' W 008°42'0 0.0
2018-Apr-10 14:29N 41°11' W 008°42'0 0.0
2018-Apr-10 13:59N 41°11' W 008°42'0 0.0
2018-Apr-10 13:29N 41°11' W 008°42'0 0.0
2018-Apr-10 13:00N 41°11' W 008°42'0 0.0
2018-Apr-10 12:30N 41°11' W 008°42'0 0.0
2018-Apr-10 12:00N 41°11' W 008°42'0 0.0
2018-Apr-10 11:29N 41°11' W 008°42'0 0.0
2018-Apr-10 11:00N 41°11' W 008°42'0 0.0
2018-Apr-10 10:29N 41°11' W 008°42'0 0.0
2018-Apr-10 09:58N 41°11' W 008°42'0 0.0
2018-Apr-10 09:29N 41°11' W 008°42'0 0.0
2018-Apr-10 08:59N 41°11' W 008°42'0 0.0
2018-Apr-10 08:28N 41°11' W 008°42'0 0.0
2018-Apr-10 07:59N 41°11' W 008°42'0 0.3
2018-Apr-10 07:30N 41°11' W 008°42'3 6.7
2018-Apr-10 07:00N 41°08' W 008°43'510.2
2018-Apr-10 06:30N 41°03' W 008°47'  

Dump ship's entire track history